Time;durP1;ratioP1;P1;durP2;ratioP2;P2;SDS_P1;SDS_P2;PMS_P1;PMS_P2;Temp;Humidity;BMP_temperature;BMP_pressure;BME280_temperature;BME280_humidity;BME280_pressure;Samples;Min_cycle;Max_cycle;Signal;HPM_P1;HPM_P2
2022/05/09 00:01:56;;;;;;;4.50;1.95;;;;;;;10.99;68.97;102909.84;5043576;28;20298;-80
2022/05/09 00:04:22;;;;;;;5.53;2.42;;;;;;;10.91;68.86;102904.69;5071983;28;20036;-80
2022/05/09 00:06:48;;;;;;;9.68;2.63;;;;;;;10.85;69.13;102909.97;5081215;28;20044;-80
2022/05/09 00:09:15;;;;;;;8.82;2.63;;;;;;;10.83;69.15;102921.34;5077527;28;20051;-80
2022/05/09 00:11:42;;;;;;;4.75;1.77;;;;;;;10.80;69.11;102917.00;5046737;28;20286;-80
2022/05/09 00:14:08;;;;;;;6.47;2.15;;;;;;;10.81;69.28;102910.03;5079389;28;20036;-80
2022/05/09 00:16:34;;;;;;;6.50;2.13;;;;;;;10.81;69.39;102907.41;5078682;28;20040;-80
2022/05/09 00:19:03;;;;;;;8.65;2.10;;;;;;;10.76;69.46;102904.81;5075617;28;20524;-80
2022/05/09 00:21:30;;;;;;;;;;;;;;;10.78;69.29;102907.41;5037803;28;20045;-80
2022/05/09 00:23:57;;;;;;;3.58;1.90;;;;;;;10.78;69.16;102903.03;5054264;28;20077;-80
2022/05/09 00:26:22;;;;;;;3.72;1.90;;;;;;;10.78;69.25;102903.03;5056858;28;20043;-80
2022/05/09 00:28:48;;;;;;;4.35;1.80;;;;;;;10.79;69.07;102894.31;5056651;28;20040;-80
2022/05/09 00:31:13;;;;;;;5.93;1.92;;;;;;;10.77;68.99;102896.06;5074089;28;20044;-80
2022/05/09 00:33:39;;;;;;;4.88;2.45;;;;;;;10.72;68.94;102892.63;5056601;28;20281;-80
2022/05/09 00:36:05;;;;;;;6.75;2.88;;;;;;;10.70;69.07;102892.63;5045400;28;20094;-80
2022/05/09 00:38:31;;;;;;;10.23;2.03;;;;;;;10.67;69.08;102899.63;5031731;28;20040;-80
2022/05/09 00:43:41;;;;;;;6.47;2.10;;;;;;;10.65;69.30;102897.03;5030843;28;20052;-80
2022/05/09 00:46:06;;;;;;;6.18;1.83;;;;;;;10.67;69.29;102889.16;5054745;28;20348;-80
2022/05/09 00:48:32;;;;;;;3.65;2.10;;;;;;;10.69;69.32;102888.25;5047489;28;20133;-80
2022/05/09 00:50:58;;;;;;;2.10;1.48;;;;;;;10.71;69.46;102891.75;5056564;28;20040;-80
2022/05/09 00:53:25;;;;;;;4.63;1.65;;;;;;;10.74;69.23;102889.09;5073083;28;20108;-80
2022/05/09 00:55:56;;;;;;;5.47;1.42;;;;;;;10.78;68.83;102886.44;5074063;28;20047;-80
2022/05/09 00:58:28;;;;;;;6.45;1.95;;;;;;;10.78;68.70;102892.56;5065695;28;20324;-80
2022/05/09 01:00:55;;;;;;;6.30;1.90;;;;;;;10.74;68.72;102885.59;5073867;28;20078;-80
2022/05/09 01:03:44;;;;;;;5.05;1.77;;;;;;;10.75;68.78;102882.09;5073640;28;20051;-80
2022/05/09 01:06:10;;;;;;;7.00;1.85;;;;;;;10.76;68.60;102875.97;5071872;28;20241;-80
2022/05/09 01:08:37;;;;;;;6.18;1.85;;;;;;;10.73;68.67;102871.63;5072976;28;20349;-80
2022/05/09 01:11:06;;;;;;;4.28;1.90;;;;;;;10.75;68.43;102874.22;5055513;28;20107;-80
2022/05/09 01:13:36;;;;;;;5.75;1.60;;;;;;;10.74;68.40;102872.50;5055284;28;20596;-80
2022/05/09 01:16:04;;;;;;;3.58;1.70;;;;;;;10.74;68.34;102870.75;5055479;28;20328;-80
2022/05/09 01:18:29;;;;;;;8.05;1.75;;;;;;;10.72;68.46;102863.78;5055082;28;20208;-80
2022/05/09 01:20:55;;;;;;;2.55;1.38;;;;;;;10.71;68.30;102868.16;5073173;28;20115;-80
2022/05/09 01:23:20;;;;;;;7.40;1.88;;;;;;;10.69;68.53;102859.41;5024761;28;20111;-80
2022/05/09 01:25:46;;;;;;;9.13;2.38;;;;;;;10.68;68.49;102859.47;5039109;28;20045;-80
2022/05/09 01:28:11;;;;;;;7.38;2.47;;;;;;;10.63;68.75;102856.00;5054972;28;20048;-80
2022/05/09 01:30:46;;;;;;;9.13;2.53;;;;;;;10.60;68.55;102856.88;5073149;28;20071;-80
2022/05/09 01:33:20;;;;;;;4.40;2.33;;;;;;;10.53;68.67;102861.31;5058678;28;20051;-80
2022/05/09 01:35:58;;;;;;;4.55;1.67;;;;;;;10.51;68.94;102857.84;5071990;28;20328;-80
2022/05/09 01:38:30;;;;;;;2.58;1.60;;;;;;;10.48;69.00;102855.25;5054390;28;20032;-80
2022/05/09 01:40:56;;;;;;;3.20;1.83;;;;;;;10.47;69.17;102856.13;5073729;28;20043;-80
2022/05/09 01:43:33;;;;;;;3.97;1.95;;;;;;;10.46;69.00;102851.78;5072294;28;20268;-80
2022/05/09 01:46:00;;;;;;;4.18;1.88;;;;;;;10.45;69.25;102849.16;5053544;28;20416;-80
2022/05/09 01:51:10;;;;;;;4.40;2.00;;;;;;;10.35;69.50;102851.88;5073107;28;20039;-80
2022/05/09 01:53:35;;;;;;;4.20;1.98;;;;;;;10.35;69.31;102850.97;5054219;28;20068;-80
2022/05/09 01:56:01;;;;;;;4.90;2.00;;;;;;;10.37;69.49;102849.22;5054871;28;20040;-80
2022/05/09 01:58:26;;;;;;;4.10;1.98;;;;;;;10.37;69.36;102841.38;5026942;28;20056;-80
2022/05/09 02:00:52;;;;;;;5.03;2.00;;;;;;;10.36;69.50;102837.00;5067817;28;20364;-80
2022/05/09 02:03:19;;;;;;;3.90;2.00;;;;;;;10.37;69.42;102842.25;5054160;28;20044;-80
2022/05/09 02:05:45;;;;;;;5.30;2.10;;;;;;;10.38;69.41;102838.72;5054383;28;20344;-80
2022/05/09 02:08:10;;;;;;;4.03;1.83;;;;;;;10.40;69.19;102841.34;5054626;28;20055;-80
2022/05/09 02:10:37;;;;;;;3.63;1.83;;;;;;;10.42;69.12;102839.56;5072248;28;20078;-80
2022/05/09 02:13:02;;;;;;;4.85;2.10;;;;;;;10.44;68.93;102839.56;5033924;28;20112;-80
2022/05/09 02:15:31;;;;;;;3.47;1.80;;;;;;;10.44;69.01;102844.78;5054116;28;20029;-80
2022/05/09 02:17:57;;;;;;;2.80;1.85;;;;;;;10.45;68.59;102846.56;5072777;28;20048;-80
2022/05/09 02:20:22;;;;;;;4.97;1.88;;;;;;;10.44;68.58;102839.56;5067480;28;20028;-80
2022/05/09 02:22:49;;;;;;;3.53;1.73;;;;;;;10.45;68.60;102838.69;5059709;28;20049;-80
2022/05/09 02:25:26;;;;;;;4.28;1.90;;;;;;;10.43;68.51;102843.06;5046316;28;20090;-80
2022/05/09 02:27:52;;;;;;;5.03;2.63;;;;;;;10.42;68.79;102841.31;5019662;28;20029;-80
2022/05/09 02:30:18;;;;;;;5.40;2.63;;;;;;;10.41;68.87;102835.22;5046589;28;20106;-80
2022/05/09 02:32:43;;;;;;;5.50;1.92;;;;;;;10.41;68.68;102837.84;5047716;28;20039;-80
2022/05/09 02:35:09;;;;;;;3.20;2.00;;;;;;;10.40;68.78;102843.94;5057066;28;20528;-80
2022/05/09 02:37:34;;;;;;;3.30;2.47;;;;;;;10.40;68.80;102840.47;5023931;28;20040;-80
2022/05/09 02:39:59;;;;;;;5.18;2.15;;;;;;;10.38;68.97;102836.09;5018354;28;20048;-80
2022/05/09 02:42:25;;;;;;;8.02;2.22;;;;;;;10.39;68.71;102839.63;5022186;28;20037;-80
2022/05/09 02:44:52;;;;;;;5.10;2.20;;;;;;;10.37;68.77;102842.25;5054057;28;20054;-80
2022/05/09 02:47:20;;;;;;;4.82;2.13;;;;;;;10.35;68.60;102838.75;5054083;28;20483;-79
2022/05/09 02:49:45;;;;;;;2.70;2.17;;;;;;;10.35;68.58;102846.63;5052535;28;20447;-79
2022/05/09 02:52:11;;;;;;;6.47;2.20;;;;;;;10.33;68.70;102837.91;5058096;28;20041;-79
2022/05/09 02:54:36;;;;;;;4.15;2.00;;;;;;;10.33;68.42;102831.78;5028341;28;20165;-79
2022/05/09 02:57:02;;;;;;;7.20;2.03;;;;;;;10.31;68.40;102828.31;5072537;28;20294;-79
2022/05/09 02:59:27;;;;;;;3.80;2.00;;;;;;;10.31;68.44;102825.69;5065531;28;20044;-79
2022/05/09 03:01:53;;;;;;;3.47;1.95;;;;;;;10.29;68.32;102824.81;5041317;28;20057;-79
2022/05/09 03:07:03;;;;;;;5.72;2.20;;;;;;;10.26;68.37;102819.59;5044947;28;20074;-79
2022/05/09 03:09:28;;;;;;;4.93;2.08;;;;;;;10.23;68.07;102817.88;5021452;28;20033;-79
2022/05/09 03:11:53;;;;;;;4.80;2.03;;;;;;;10.22;68.36;102818.75;5075857;28;20182;-79
2022/05/09 03:14:19;;;;;;;7.53;2.17;;;;;;;10.18;68.34;102817.88;5075643;28;20046;-79
2022/05/09 03:16:44;;;;;;;3.00;1.90;;;;;;;10.17;68.02;102823.16;5040857;28;20107;-79
2022/05/09 03:19:10;;;;;;;5.57;2.40;;;;;;;10.13;68.26;102822.31;5024772;28;20421;-79
2022/05/09 03:21:35;;;;;;;4.43;2.28;;;;;;;10.10;68.28;102817.09;5050898;28;20095;-79
2022/05/09 03:24:00;;;;;;;5.45;2.58;;;;;;;10.07;68.01;102814.50;5057716;28;20085;-79
2022/05/09 03:26:26;;;;;;;4.43;1.92;;;;;;;10.05;68.17;102811.00;5056793;28;20040;-79
2022/05/09 03:28:52;;;;;;;3.70;2.00;;;;;;;10.03;68.09;102806.69;5059288;28;20265;-79
2022/05/09 03:31:17;;;;;;;5.68;2.30;;;;;;;10.01;67.89;102803.22;5030123;28;20051;-79
2022/05/09 03:33:43;;;;;;;5.43;2.42;;;;;;;9.98;67.94;102807.56;5038424;28;20037;-79
2022/05/09 03:36:08;;;;;;;5.72;2.17;;;;;;;9.95;67.72;102798.84;5068001;28;20036;-79
2022/05/09 03:38:34;;;;;;;3.13;2.20;;;;;;;9.94;67.92;102805.00;5052121;28;20055;-79
2022/05/09 03:40:59;;;;;;;2.97;2.13;;;;;;;9.90;67.87;102801.53;5054243;28;20298;-79
2022/05/09 03:43:25;;;;;;;4.78;2.00;;;;;;;9.87;67.97;102795.44;5045575;28;20047;-79
2022/05/09 03:45:52;;;;;;;4.93;2.17;;;;;;;9.85;68.11;102794.59;5034349;28;20036;-79
2022/05/09 03:48:17;;;;;;;4.88;2.30;;;;;;;9.83;68.24;102797.22;5060171;28;20044;-79
2022/05/09 03:50:42;;;;;;;3.47;1.90;;;;;;;9.81;68.03;102798.97;5059245;28;20085;-79
2022/05/09 03:53:08;;;;;;;4.93;2.45;;;;;;;9.78;68.21;102791.13;5076560;28;20064;-79
2022/05/09 03:55:33;;;;;;;2.50;1.90;;;;;;;9.75;68.37;102798.97;5058156;28;20044;-79
2022/05/09 03:57:59;;;;;;;2.67;1.77;;;;;;;9.72;68.47;102792.03;5040201;28;20028;-79
2022/05/09 04:00:28;;;;;;;3.05;2.25;;;;;;;9.70;68.12;102788.56;5073981;28;20082;-79
2022/05/09 04:02:53;;;;;;;4.95;2.30;;;;;;;9.68;68.16;102789.44;5058972;28;20329;-79
2022/05/09 04:05:19;;;;;;;4.57;2.40;;;;;;;9.66;68.43;102785.97;5038749;28;20047;-79
2022/05/09 04:07:47;;;;;;;7.10;2.20;;;;;;;9.64;68.54;102791.22;5051813;28;20041;-79
2022/05/09 04:10:15;;;;;;;3.28;1.70;;;;;;;9.63;68.34;102786.00;5064094;28;20069;-79
2022/05/09 04:12:41;;;;;;;4.25;2.10;;;;;;;9.61;68.38;102796.47;5073145;28;20044;-79
2022/05/09 04:17:51;;;;;;;7.07;2.38;;;;;;;9.57;68.59;102785.16;5068715;28;20111;-79
2022/05/09 04:20:17;;;;;;;3.85;2.10;;;;;;;9.56;68.55;102786.00;5035246;28;20033;-79
2022/05/09 04:22:42;;;;;;;4.75;2.22;;;;;;;9.55;68.54;102788.63;5053824;28;20044;-79
2022/05/09 04:25:08;;;;;;;6.25;2.28;;;;;;;9.54;68.69;102781.69;5055227;28;20074;-79
2022/05/09 04:27:33;;;;;;;5.78;2.70;;;;;;;9.54;68.55;102786.91;5071353;28;20094;-79
2022/05/09 04:29:59;;;;;;;4.10;2.47;;;;;;;9.52;68.71;102780.81;5068765;28;20067;-79
2022/05/09 04:32:25;;;;;;;6.13;2.45;;;;;;;9.51;68.79;102781.69;5053074;28;20024;-79
2022/05/09 04:34:50;;;;;;;4.05;2.50;;;;;;;9.51;68.66;102784.31;5060364;28;20292;-79
2022/05/09 04:37:16;;;;;;;5.68;2.85;;;;;;;9.49;68.69;102780.81;5048754;28;20048;-79
2022/05/09 04:39:41;;;;;;;4.18;2.03;;;;;;;9.49;68.93;102779.06;5037038;28;20286;-79
2022/05/09 04:42:09;;;;;;;3.42;2.17;;;;;;;9.48;68.87;102772.13;5067801;28;20043;-79
2022/05/09 04:44:34;;;;;;;6.43;2.50;;;;;;;9.47;68.80;102769.50;5050522;28;20104;-79
2022/05/09 04:47:00;;;;;;;6.70;2.70;;;;;;;9.47;69.18;102769.50;5054169;28;20029;-79
2022/05/09 04:49:25;;;;;;;3.58;2.40;;;;;;;9.47;69.00;102775.59;5072126;28;20047;-79
2022/05/09 04:51:51;;;;;;;4.07;2.30;;;;;;;9.47;69.07;102766.91;5048276;28;20044;-79
2022/05/09 04:54:16;;;;;;;7.57;3.17;;;;;;;9.46;69.03;102763.41;5034006;28;20107;-79
2022/05/09 04:56:42;;;;;;;3.75;2.40;;;;;;;9.46;69.17;102768.66;5051991;28;20044;-79
2022/05/09 04:59:08;;;;;;;3.60;2.50;;;;;;;9.45;69.35;102761.66;5072260;28;20040;-79
2022/05/09 05:01:33;;;;;;;3.08;2.30;;;;;;;9.45;69.73;102769.50;5050723;28;20057;-79
2022/05/09 05:04:00;;;;;;;5.32;2.80;;;;;;;9.46;69.70;102768.66;5053948;28;20033;-79
2022/05/09 05:06:25;;;;;;;6.80;2.55;;;;;;;9.48;69.98;102769.50;5054240;28;20237;-79
2022/05/09 05:08:50;;;;;;;5.80;2.65;;;;;;;9.49;70.22;102772.97;5050478;28;20044;-79
2022/05/09 05:11:16;;;;;;;5.88;2.53;;;;;;;9.50;69.91;102772.13;5049786;28;20040;-79
2022/05/09 05:13:41;;;;;;;6.53;2.28;;;;;;;9.51;69.90;102771.22;5059368;28;20203;-79
2022/05/09 05:16:07;;;;;;;5.60;2.85;;;;;;;9.49;70.34;102770.38;5071585;28;20103;-79
2022/05/09 05:18:34;;;;;;;6.03;2.40;;;;;;;9.49;70.84;102775.59;5071447;28;20044;-79
2022/05/09 05:21:07;;;;;;;5.85;2.67;;;;;;;9.50;71.07;102777.34;5072454;28;20107;-79
2022/05/09 05:23:32;;;;;;;16.00;4.00;;;;;;;9.47;71.62;102759.91;5052140;28;20052;-79
2022/05/09 05:26:00;;;;;;;7.82;2.60;;;;;;;9.48;71.43;102755.53;5036753;28;20131;-79
2022/05/09 05:28:26;;;;;;;8.18;3.00;;;;;;;9.42;72.09;102764.28;5029636;28;20041;-79
2022/05/09 05:30:53;;;;;;;8.88;3.10;;;;;;;9.42;72.33;102759.06;5060956;28;20036;-78
2022/05/09 05:33:20;;;;;;;11.30;3.90;;;;;;;9.39;72.87;102761.72;5062427;28;20123;-79
2022/05/09 05:35:45;;;;;;;7.47;3.15;;;;;;;9.40;72.55;102759.09;5045324;28;20094;-79
2022/05/09 05:38:11;;;;;;;5.13;3.15;;;;;;;9.39;73.08;102770.41;5043714;28;20104;-79
2022/05/09 05:40:36;;;;;;;8.00;3.45;;;;;;;9.42;72.72;102766.91;5044366;28;20020;-79
2022/05/09 05:43:01;;;;;;;4.53;2.50;;;;;;;9.45;72.74;102772.13;5063382;28;20399;-79
2022/05/09 05:45:28;;;;;;;9.15;3.42;;;;;;;9.49;72.67;102767.75;5046027;28;20059;-79
2022/05/09 05:47:53;;;;;;;4.65;2.40;;;;;;;9.51;72.56;102769.47;5062219;28;20131;-79
2022/05/09 05:50:21;;;;;;;17.45;4.28;;;;;;;9.50;72.76;102772.13;5051141;28;20387;-79
2022/05/09 05:52:47;;;;;;;8.38;3.28;;;;;;;9.53;72.55;102764.22;5052564;28;20077;-79
2022/05/09 05:55:12;;;;;;;6.68;2.90;;;;;;;9.57;72.32;102764.22;5066742;28;20300;-79
2022/05/09 05:57:40;;;;;;;9.60;3.65;;;;;;;9.54;72.90;102772.06;5040277;28;20040;-79
2022/05/09 06:00:08;;;;;;;12.63;4.10;;;;;;;9.53;73.08;102764.22;5053458;28;20305;-79
2022/05/09 06:02:33;;;;;;;12.38;4.22;;;;;;;9.55;73.17;102772.94;5052066;28;20394;-79
2022/05/09 06:04:59;;;;;;;10.02;4.00;;;;;;;9.57;73.29;102776.44;5027648;28;20032;-79
2022/05/09 06:07:25;;;;;;;16.08;4.28;;;;;;;9.56;73.36;102770.31;5027804;28;20028;-79
2022/05/09 06:09:52;;;;;;;12.88;4.30;;;;;;;9.57;73.26;102773.81;5058358;28;20248;-79
2022/05/09 06:12:20;;;;;;;5.05;3.20;;;;;;;9.63;73.30;102771.16;5040911;28;20067;-79
2022/05/09 06:15:24;;;;;;;7.05;3.65;;;;;;;9.66;72.97;102768.53;5062304;28;20044;-79
2022/05/09 06:17:33;;;;;;;6.22;3.10;;;;;;;9.70;72.77;102769.38;5050783;28;20070;-79
2022/05/09 06:19:58;;;;;;;12.85;4.13;;;;;;;9.70;72.69;102770.25;5049997;28;20024;-79
2022/05/09 06:22:24;;;;;;;5.15;3.65;;;;;;;9.72;72.91;102773.72;5045683;28;20082;-79
2022/05/09 06:24:57;;;;;;;7.93;3.33;;;;;;;9.78;72.75;102783.28;5067887;28;20103;-79
2022/05/09 06:27:22;;;;;;;6.00;3.22;;;;;;;9.80;72.50;102792.88;5046741;28;20239;-79
2022/05/09 06:29:47;;;;;;;6.18;3.15;;;;;;;9.83;72.52;102783.25;5047636;28;20225;-79
2022/05/09 06:32:13;;;;;;;5.07;3.08;;;;;;;9.84;72.50;102775.41;5044858;28;20040;-79
2022/05/09 06:34:38;;;;;;;5.25;2.83;;;;;;;9.88;72.25;102771.03;5014545;28;20032;-79
2022/05/09 06:37:04;;;;;;;2.80;2.53;;;;;;;9.89;72.21;102770.97;5065608;28;20381;-79
2022/05/09 06:39:29;;;;;;;4.03;2.85;;;;;;;9.91;72.13;102771.84;5053487;28;20040;-79
2022/05/09 06:41:55;;;;;;;14.15;4.93;;;;;;;9.91;72.50;102774.44;5072377;28;20060;-79
2022/05/09 06:44:20;;;;;;;9.00;3.80;;;;;;;9.94;72.45;102777.06;5049130;28;20055;-79
2022/05/09 06:46:46;;;;;;;6.22;3.97;;;;;;;9.98;72.26;102776.16;5068645;28;20332;-80
2022/05/09 06:49:11;;;;;;;7.47;4.25;;;;;;;9.99;72.54;102777.03;5051263;28;20393;-79
2022/05/09 06:51:36;;;;;;;5.95;3.80;;;;;;;10.03;72.33;102780.50;5055883;28;20163;-80
2022/05/09 06:54:03;;;;;;;4.90;2.95;;;;;;;10.06;72.66;102783.06;5052672;28;20115;-79
2022/05/09 06:56:28;;;;;;;7.13;3.92;;;;;;;10.08;72.25;102776.13;5039473;28;20064;-79
2022/05/09 06:58:54;;;;;;;11.85;4.75;;;;;;;10.11;72.14;102773.44;5039752;28;20040;-80
2022/05/09 07:01:19;;;;;;;7.70;3.90;;;;;;;10.13;71.96;102769.97;5052067;28;20044;-79
2022/05/09 07:03:46;;;;;;;10.95;4.68;;;;;;;10.17;72.05;102773.41;5049085;28;20304;-79
2022/05/09 07:06:12;;;;;;;8.05;3.80;;;;;;;10.22;71.73;102770.75;5062284;28;20063;-79
2022/05/09 07:08:38;;;;;;;7.85;3.70;;;;;;;10.28;71.47;102773.34;5064636;28;20359;-79
2022/05/09 07:11:05;;;;;;;4.72;3.45;;;;;;;10.31;71.18;102770.69;5072436;28;20067;-79
2022/05/09 07:13:31;;;;;;;8.45;4.18;;;;;;;10.34;71.17;102770.69;5072924;28;20040;-79
2022/05/09 07:15:57;;;;;;;10.02;4.13;;;;;;;10.39;71.04;102771.50;5065544;28;20209;-78
2022/05/09 07:18:27;;;;;;;7.68;3.63;;;;;;;10.43;70.83;102781.06;5027787;28;20048;-79
2022/05/09 07:20:53;;;;;;;11.02;4.50;;;;;;;10.45;71.02;102773.19;5066021;28;20028;-79
2022/05/09 07:23:18;;;;;;;6.68;4.47;;;;;;;10.49;71.10;102767.91;5034699;28;20064;-79
2022/05/09 07:25:44;;;;;;;18.23;4.93;;;;;;;10.55;70.81;102773.09;5046940;28;20037;-79
2022/05/09 07:28:11;;;;;;;9.70;4.20;;;;;;;10.61;70.89;102769.56;5056478;28;20133;-79
2022/05/09 07:30:38;;;;;;;11.60;4.32;;;;;;;10.67;70.26;102771.25;5054110;28;20073;-79
2022/05/09 07:33:04;;;;;;;11.57;4.32;;;;;;;10.75;70.49;102765.03;5041197;28;20236;-79
2022/05/09 07:35:31;;;;;;;12.30;4.53;;;;;;;10.79;70.58;102765.88;5067389;28;20040;-79
2022/05/09 07:37:56;;;;;;;10.95;4.15;;;;;;;10.83;70.25;102766.72;5065790;28;20039;-79
2022/05/09 07:40:21;;;;;;;8.77;4.30;;;;;;;10.88;70.39;102763.16;5021759;28;20244;-79
2022/05/09 07:42:47;;;;;;;6.05;4.10;;;;;;;10.93;70.29;102763.09;5050758;28;20050;-79
2022/05/09 07:45:16;;;;;;;8.73;4.55;;;;;;;11.00;69.78;102761.28;5033484;28;20115;-79
2022/05/09 07:47:42;;;;;;;14.07;4.50;;;;;;;11.04;69.87;102762.97;5077524;28;20032;-80
2022/05/09 07:50:10;;;;;;;11.98;5.05;;;;;;;11.11;69.78;102765.50;5043276;28;20301;-79
2022/05/09 07:52:36;;;;;;;15.45;4.20;;;;;;;11.16;69.49;102761.97;5076304;28;20036;-80
2022/05/09 07:55:01;;;;;;;9.60;4.47;;;;;;;11.20;69.27;102761.88;5056672;28;20365;-79
2022/05/09 07:57:28;;;;;;;8.35;4.07;;;;;;;11.25;69.06;102754.84;5072026;28;20332;-79
2022/05/09 07:59:53;;;;;;;13.57;4.60;;;;;;;11.36;68.39;102756.47;5057739;28;20328;-79
2022/05/09 08:02:19;;;;;;;13.30;4.53;;;;;;;11.44;68.82;102763.34;5073033;28;20320;-79
2022/05/09 08:04:44;;;;;;;10.77;4.53;;;;;;;11.52;68.74;102764.09;5056410;28;20036;-79
2022/05/09 08:07:10;;;;;;;14.93;4.75;;;;;;;11.60;68.30;102757.88;5021846;28;20036;-79
2022/05/09 08:09:35;;;;;;;15.48;4.60;;;;;;;11.67;67.83;102752.50;5062741;28;20058;-79
2022/05/09 08:12:03;;;;;;;8.20;4.00;;;;;;;11.76;68.01;102759.38;5058111;28;20044;-79
2022/05/09 08:14:29;;;;;;;13.90;4.53;;;;;;;11.85;67.42;102759.22;5073359;28;20363;-79
2022/05/09 08:16:54;;;;;;;12.88;4.47;;;;;;;11.93;66.86;102755.66;5075125;28;20247;-79
2022/05/09 08:19:20;;;;;;;12.68;4.32;;;;;;;12.03;66.72;102752.00;5042031;28;20625;-79
2022/05/09 08:21:49;;;;;;;13.70;4.35;;;;;;;12.14;66.40;102760.56;5057074;28;20033;-79
2022/05/09 08:24:15;;;;;;;9.20;3.88;;;;;;;12.23;66.06;102754.28;5071240;28;20028;-79
2022/05/09 08:26:40;;;;;;;13.23;4.18;;;;;;;12.34;65.49;102747.09;5075053;28;20098;-79
2022/05/09 08:29:07;;;;;;;10.40;4.15;;;;;;;12.47;65.08;102755.63;5039226;28;20041;-79
2022/05/09 08:31:33;;;;;;;13.20;4.43;;;;;;;12.57;64.19;102749.31;5060230;28;20272;-79
2022/05/09 08:33:59;;;;;;;15.30;3.85;;;;;;;12.64;65.05;102750.94;5058341;28;20037;-79
2022/05/09 08:39:09;;;;;;;8.18;3.25;;;;;;;12.88;63.42;102748.72;5063178;28;20048;-79
2022/05/09 08:41:49;;;;;;;15.85;4.15;;;;;;;12.99;63.34;102745.88;5062536;28;20258;-79
2022/05/09 08:44:27;;;;;;;11.88;3.58;;;;;;;13.07;63.83;102744.78;5070586;28;20039;-79
2022/05/09 08:47:27;;;;;;;16.88;4.18;;;;;;;13.18;61.22;102746.34;5062246;28;20098;-79
2022/05/09 08:50:04;;;;;;;12.00;4.45;;;;;;;13.24;61.67;102746.19;5073610;28;20029;-79
2022/05/09 08:52:44;;;;;;;12.57;4.13;;;;;;;13.32;62.84;102741.69;5067653;28;20163;-79
2022/05/09 08:55:12;;;;;;;8.05;3.15;;;;;;;13.39;62.50;102735.38;5055667;28;20024;-79
2022/05/09 08:57:54;;;;;;;15.98;4.30;;;;;;;13.48;61.65;102736.94;5075848;28;20032;-79
2022/05/09 09:00:21;;;;;;;14.52;3.65;;;;;;;13.51;61.43;102726.34;5056999;28;20023;-79
2022/05/09 09:02:51;;;;;;;8.82;3.85;;;;;;;13.55;62.15;102733.28;5071894;28;20036;-79
2022/05/09 09:05:23;;;;;;;8.85;4.22;;;;;;;13.63;60.63;102733.09;5071296;28;20479;-79
2022/05/09 09:08:07;;;;;;;13.73;3.72;;;;;;;13.71;61.95;102731.13;5073841;28;20040;-79
2022/05/09 09:11:01;;;;;;;16.10;4.10;;;;;;;13.79;61.85;102728.34;5069797;28;20376;-79
2022/05/09 09:13:53;;;;;;;8.35;3.63;;;;;;;13.90;60.08;102722.78;5072821;28;20028;-79
2022/05/09 09:16:54;;;;;;;11.85;2.95;;;;;;;14.02;58.80;102717.22;5068042;28;20348;-79
2022/05/09 09:19:36;;;;;;;5.95;2.47;;;;;;;14.13;57.91;102720.44;5047495;28;20042;-79
2022/05/09 09:22:30;;;;;;;9.30;2.58;;;;;;;14.31;55.96;102713.81;5068804;28;20294;-79
2022/05/09 09:24:55;;;;;;;7.40;2.42;;;;;;;14.40;54.37;102705.66;5064137;28;20336;-80
2022/05/09 09:27:44;;;;;;;11.20;2.25;;;;;;;14.49;53.81;102704.56;5056695;28;20343;-79
2022/05/09 09:30:21;;;;;;;6.30;2.10;;;;;;;14.57;53.04;102704.34;5060827;28;20028;-79
2022/05/09 09:33:03;;;;;;;4.07;1.80;;;;;;;14.66;53.38;102708.53;5067838;28;20385;-79
2022/05/09 09:35:53;;;;;;;7.72;1.70;;;;;;;14.71;51.03;102699.56;5074246;28;20107;-79
2022/05/09 09:38:54;;;;;;;7.18;2.13;;;;;;;14.78;53.50;102700.28;5055995;28;20064;-79
2022/05/09 09:41:19;;;;;;;7.95;1.77;;;;;;;14.89;53.35;102705.25;5049168;28;20103;-79
2022/05/09 09:43:46;;;;;;;4.35;1.63;;;;;;;14.94;54.06;102698.06;5072116;28;20344;-80
2022/05/09 09:46:11;;;;;;;1.35;1.25;;;;;;;15.00;54.16;102692.59;5048024;28;20107;-79
2022/05/09 09:48:37;;;;;;;7.38;1.98;;;;;;;15.05;52.49;102695.13;5074282;28;20350;-79
2022/05/09 09:51:07;;;;;;;5.85;2.50;;;;;;;15.10;51.23;102688.78;5029812;28;20037;-79
2022/05/09 09:53:49;;;;;;;4.40;2.17;;;;;;;15.12;51.97;102686.97;5067588;28;20642;-80
2022/05/09 09:56:20;;;;;;;8.23;2.40;;;;;;;15.23;51.01;102680.50;5064478;28;20299;-79
2022/05/09 09:58:47;;;;;;;9.05;1.92;;;;;;;15.32;51.84;102686.34;5070632;28;20220;-80
2022/05/09 10:01:25;;;;;;;7.35;2.35;;;;;;;15.42;50.81;102683.41;5068808;28;20079;-79
2022/05/09 10:04:09;;;;;;;6.38;2.47;;;;;;;15.45;51.38;102686.81;5068609;28;20329;-79
2022/05/09 10:06:35;;;;;;;44.75;4.10;;;;;;;15.52;52.04;102675.16;5064711;28;20104;-79
2022/05/09 10:09:06;;;;;;;10.68;2.50;;;;;;;15.59;53.49;102674.94;5053592;28;20028;-79
2022/05/09 10:11:32;;;;;;;5.30;2.45;;;;;;;15.64;53.23;102670.38;5053878;28;20060;-79
2022/05/09 10:14:01;;;;;;;4.35;2.30;;;;;;;15.67;52.76;102678.19;5062395;28;20021;-79
2022/05/09 10:16:48;;;;;;;7.10;2.13;;;;;;;15.71;52.93;102674.53;5068155;28;20040;-79
2022/05/09 10:19:29;;;;;;;8.80;2.30;;;;;;;15.75;51.46;102665.63;5054928;28;20089;-80
2022/05/09 10:25:15;;;;;;;5.78;2.30;;;;;;;15.80;51.32;102661.06;5069737;28;20035;-79
2022/05/09 10:27:41;;;;;;;4.90;1.73;;;;;;;15.74;51.63;102663.91;5056222;28;20075;-79
2022/05/09 10:30:22;;;;;;;5.97;2.08;;;;;;;15.70;48.61;102649.91;5070945;28;20043;-79
2022/05/09 10:32:56;;;;;;;5.72;1.77;;;;;;;15.77;48.60;102650.63;5069555;28;20517;-80
2022/05/09 10:35:42;;;;;;;3.75;1.60;;;;;;;15.81;53.01;102656.63;5058722;28;20320;-79
2022/05/09 10:38:14;;;;;;;3.58;1.70;;;;;;;15.81;52.49;102654.88;5050387;28;20036;-79
2022/05/09 10:40:42;;;;;;;4.43;1.90;;;;;;;15.86;51.36;102646.78;5066652;28;20035;-80
2022/05/09 10:43:19;;;;;;;2.85;1.60;;;;;;;15.90;53.38;102638.69;5057007;28;20311;-79
2022/05/09 10:45:49;;;;;;;6.85;2.22;;;;;;;15.95;48.86;102637.66;5064828;28;20028;-79
2022/05/09 10:48:36;;;;;;;7.95;2.67;;;;;;;16.00;49.21;102630.44;5069021;28;20036;-79
2022/05/09 10:51:32;;;;;;;4.45;2.30;;;;;;;16.05;48.21;102633.81;5064692;28;20032;-79
2022/05/09 10:54:25;;;;;;;4.97;2.03;;;;;;;16.14;49.40;102638.75;5075067;28;20040;-79
2022/05/09 10:56:55;;;;;;;6.75;2.25;;;;;;;16.18;51.00;102640.38;5050687;28;20112;-79
2022/05/09 10:59:24;;;;;;;7.15;2.15;;;;;;;16.25;50.84;102639.22;5072726;28;20271;-79
2022/05/09 11:02:00;;;;;;;6.22;2.10;;;;;;;16.32;51.02;102637.25;5073514;28;20301;-79
2022/05/09 11:04:26;;;;;;;5.88;1.95;;;;;;;16.42;50.51;102632.47;5057332;28;20307;-79
2022/05/09 11:07:19;;;;;;;5.13;2.30;;;;;;;16.50;51.31;102633.06;5074907;28;20271;-79
2022/05/09 11:09:51;;;;;;;4.28;2.45;;;;;;;16.61;50.35;102638.81;5052187;28;20103;-79
2022/05/09 11:12:47;;;;;;;5.53;2.20;;;;;;;16.70;48.90;102633.16;5067348;28;20036;-79
2022/05/09 11:15:21;;;;;;;6.03;2.47;;;;;;;16.79;47.41;102621.38;5072106;28;20046;-79
2022/05/09 11:17:52;;;;;;;4.85;2.33;;;;;;;16.87;48.94;102619.31;5057609;28;20028;-79
2022/05/09 11:20:46;;;;;;;6.70;3.33;;;;;;;16.93;49.50;102620.84;5052370;28;20100;-79
2022/05/09 11:23:26;;;;;;;6.28;2.50;;;;;;;16.97;45.97;102611.00;5055038;28;20012;-79
2022/05/09 11:26:25;;;;;;;7.53;2.55;;;;;;;16.99;48.15;102612.69;5069982;28;20021;-79
2022/05/09 11:28:53;;;;;;;4.72;1.90;;;;;;;17.05;48.40;102612.44;5079145;28;20029;-79
2022/05/09 11:31:36;;;;;;;7.20;2.67;;;;;;;17.12;46.49;102601.59;5077754;28;20394;-79
2022/05/09 11:34:04;;;;;;;6.78;2.35;;;;;;;17.15;51.16;102596.19;5063938;28;20035;-79
2022/05/09 11:36:59;;;;;;;7.05;2.20;;;;;;;17.15;48.21;102597.03;5070257;28;20047;-79
2022/05/09 11:39:33;;;;;;;4.07;2.20;;;;;;;17.25;50.63;102601.03;5074463;28;20032;-79
2022/05/09 11:45:13;;;;;;;7.10;2.10;;;;;;;17.40;49.54;102583.66;5072228;28;20040;-79
2022/05/09 11:48:25;;;;;;;3.85;2.08;;;;;;;17.50;46.14;102586.78;5047175;28;20212;-79
2022/05/09 11:51:06;;;;;;;5.25;2.00;;;;;;;17.57;47.12;102579.44;5078743;28;20039;-79
2022/05/09 11:53:36;;;;;;;9.52;3.10;;;;;;;17.62;48.50;102580.09;5054767;28;20355;-79
2022/05/09 11:56:05;;;;;;;5.53;2.38;;;;;;;17.63;49.21;102576.53;5078504;28;20064;-79
2022/05/09 11:58:34;;;;;;;4.53;2.10;;;;;;;17.67;48.33;102566.66;5065836;28;20043;-79